sensor_id;sensor_type;location;lat;lon;timestamp;P1;durP1;ratioP1;P2;durP2;ratioP2
8861;SDS011;4799;50.996;4.754;2022-11-09T00:02:17;7.03;;;2.13;;
8861;SDS011;4799;50.996;4.754;2022-11-09T00:04:43;5.13;;;2.27;;
8861;SDS011;4799;50.996;4.754;2022-11-09T00:07:09;6.63;;;2.40;;
8861;SDS011;4799;50.996;4.754;2022-11-09T00:09:34;4.57;;;2.20;;
8861;SDS011;4799;50.996;4.754;2022-11-09T00:12:00;3.40;;;2.10;;
8861;SDS011;4799;50.996;4.754;2022-11-09T00:14:28;5.77;;;2.30;;
8861;SDS011;4799;50.996;4.754;2022-11-09T00:16:55;5.80;;;2.20;;
8861;SDS011;4799;50.996;4.754;2022-11-09T00:19:21;4.00;;;1.90;;
8861;SDS011;4799;50.996;4.754;2022-11-09T00:21:48;7.80;;;2.50;;
8861;SDS011;4799;50.996;4.754;2022-11-09T00:24:13;4.80;;;2.00;;
8861;SDS011;4799;50.996;4.754;2022-11-09T00:26:39;4.10;;;2.23;;
8861;SDS011;4799;50.996;4.754;2022-11-09T00:29:05;5.60;;;2.17;;
8861;SDS011;4799;50.996;4.754;2022-11-09T00:31:31;5.57;;;2.37;;
8861;SDS011;4799;50.996;4.754;2022-11-09T00:33:57;6.90;;;2.30;;
8861;SDS011;4799;50.996;4.754;2022-11-09T00:36:23;6.57;;;2.20;;
8861;SDS011;4799;50.996;4.754;2022-11-09T00:38:51;4.97;;;1.90;;
8861;SDS011;4799;50.996;4.754;2022-11-09T00:41:18;4.93;;;2.20;;
8861;SDS011;4799;50.996;4.754;2022-11-09T00:43:45;4.97;;;2.47;;
8861;SDS011;4799;50.996;4.754;2022-11-09T00:46:11;6.13;;;2.43;;
8861;SDS011;4799;50.996;4.754;2022-11-09T00:48:37;3.93;;;1.90;;
8861;SDS011;4799;50.996;4.754;2022-11-09T00:51:03;3.90;;;2.10;;
8861;SDS011;4799;50.996;4.754;2022-11-09T00:53:29;4.87;;;1.97;;
8861;SDS011;4799;50.996;4.754;2022-11-09T00:55:57;4.37;;;2.20;;
8861;SDS011;4799;50.996;4.754;2022-11-09T00:58:24;3.97;;;2.17;;
8861;SDS011;4799;50.996;4.754;2022-11-09T01:00:51;5.37;;;2.27;;
8861;SDS011;4799;50.996;4.754;2022-11-09T01:03:18;6.27;;;2.30;;
8861;SDS011;4799;50.996;4.754;2022-11-09T01:05:44;5.27;;;2.00;;
8861;SDS011;4799;50.996;4.754;2022-11-09T01:08:11;5.80;;;2.17;;
8861;SDS011;4799;50.996;4.754;2022-11-09T01:10:40;5.13;;;2.10;;
8861;SDS011;4799;50.996;4.754;2022-11-09T01:13:07;6.00;;;2.40;;
8861;SDS011;4799;50.996;4.754;2022-11-09T01:15:38;7.03;;;2.00;;
8861;SDS011;4799;50.996;4.754;2022-11-09T01:18:05;7.63;;;2.10;;
8861;SDS011;4799;50.996;4.754;2022-11-09T01:20:31;5.20;;;2.03;;
8861;SDS011;4799;50.996;4.754;2022-11-09T01:22:57;7.70;;;2.20;;
8861;SDS011;4799;50.996;4.754;2022-11-09T01:25:22;6.33;;;2.20;;
8861;SDS011;4799;50.996;4.754;2022-11-09T01:27:48;6.10;;;2.17;;
8861;SDS011;4799;50.996;4.754;2022-11-09T01:30:14;5.93;;;1.87;;
8861;SDS011;4799;50.996;4.754;2022-11-09T01:32:39;9.07;;;2.40;;
8861;SDS011;4799;50.996;4.754;2022-11-09T01:35:05;6.57;;;2.30;;
8861;SDS011;4799;50.996;4.754;2022-11-09T01:37:31;6.90;;;2.60;;
8861;SDS011;4799;50.996;4.754;2022-11-09T01:39:57;7.57;;;2.40;;
8861;SDS011;4799;50.996;4.754;2022-11-09T01:42:23;9.03;;;2.57;;
8861;SDS011;4799;50.996;4.754;2022-11-09T01:45:12;7.33;;;2.37;;
8861;SDS011;4799;50.996;4.754;2022-11-09T01:47:44;10.23;;;2.57;;
8861;SDS011;4799;50.996;4.754;2022-11-09T01:50:15;8.97;;;3.00;;
8861;SDS011;4799;50.996;4.754;2022-11-09T01:52:53;5.80;;;2.33;;
8861;SDS011;4799;50.996;4.754;2022-11-09T01:55:19;7.73;;;2.60;;
8861;SDS011;4799;50.996;4.754;2022-11-09T01:57:52;5.73;;;2.40;;
8861;SDS011;4799;50.996;4.754;2022-11-09T02:00:25;9.53;;;2.57;;
8861;SDS011;4799;50.996;4.754;2022-11-09T02:03:00;7.90;;;2.40;;
8861;SDS011;4799;50.996;4.754;2022-11-09T02:05:33;7.70;;;2.37;;
8861;SDS011;4799;50.996;4.754;2022-11-09T02:08:02;7.73;;;2.40;;
8861;SDS011;4799;50.996;4.754;2022-11-09T02:10:42;7.23;;;2.50;;
8861;SDS011;4799;50.996;4.754;2022-11-09T02:13:15;6.67;;;2.53;;
8861;SDS011;4799;50.996;4.754;2022-11-09T02:15:43;7.27;;;2.40;;
8861;SDS011;4799;50.996;4.754;2022-11-09T02:18:09;6.20;;;2.37;;
8861;SDS011;4799;50.996;4.754;2022-11-09T02:20:48;7.97;;;2.60;;
8861;SDS011;4799;50.996;4.754;2022-11-09T02:23:18;6.53;;;2.07;;
8861;SDS011;4799;50.996;4.754;2022-11-09T02:25:45;7.37;;;2.50;;
8861;SDS011;4799;50.996;4.754;2022-11-09T02:28:15;8.87;;;2.60;;
8861;SDS011;4799;50.996;4.754;2022-11-09T02:30:42;5.83;;;2.33;;
8861;SDS011;4799;50.996;4.754;2022-11-09T02:33:09;7.13;;;2.53;;
8861;SDS011;4799;50.996;4.754;2022-11-09T02:35:35;7.20;;;2.33;;
8861;SDS011;4799;50.996;4.754;2022-11-09T02:38:01;9.13;;;2.50;;
8861;SDS011;4799;50.996;4.754;2022-11-09T02:40:30;9.10;;;2.30;;
8861;SDS011;4799;50.996;4.754;2022-11-09T02:43:01;7.57;;;2.33;;
8861;SDS011;4799;50.996;4.754;2022-11-09T02:45:29;6.47;;;2.60;;
8861;SDS011;4799;50.996;4.754;2022-11-09T02:47:54;7.33;;;2.50;;
8861;SDS011;4799;50.996;4.754;2022-11-09T02:50:20;7.73;;;2.53;;
8861;SDS011;4799;50.996;4.754;2022-11-09T02:52:46;8.07;;;2.40;;
8861;SDS011;4799;50.996;4.754;2022-11-09T02:55:12;7.23;;;2.60;;
8861;SDS011;4799;50.996;4.754;2022-11-09T02:57:38;7.50;;;2.47;;
8861;SDS011;4799;50.996;4.754;2022-11-09T03:00:04;7.80;;;2.67;;
8861;SDS011;4799;50.996;4.754;2022-11-09T03:02:30;6.87;;;2.30;;
8861;SDS011;4799;50.996;4.754;2022-11-09T03:04:56;7.83;;;2.43;;
8861;SDS011;4799;50.996;4.754;2022-11-09T03:07:22;9.60;;;2.80;;
8861;SDS011;4799;50.996;4.754;2022-11-09T03:09:48;5.03;;;2.33;;
8861;SDS011;4799;50.996;4.754;2022-11-09T03:12:14;7.67;;;2.80;;
8861;SDS011;4799;50.996;4.754;2022-11-09T03:15:04;8.50;;;2.50;;
8861;SDS011;4799;50.996;4.754;2022-11-09T03:17:32;5.80;;;2.10;;
8861;SDS011;4799;50.996;4.754;2022-11-09T03:19:59;7.13;;;2.30;;
8861;SDS011;4799;50.996;4.754;2022-11-09T03:22:25;8.83;;;2.93;;
8861;SDS011;4799;50.996;4.754;2022-11-09T03:24:51;7.23;;;2.50;;
8861;SDS011;4799;50.996;4.754;2022-11-09T03:27:17;7.10;;;2.43;;
8861;SDS011;4799;50.996;4.754;2022-11-09T03:29:42;8.80;;;2.50;;
8861;SDS011;4799;50.996;4.754;2022-11-09T03:32:08;6.97;;;2.40;;
8861;SDS011;4799;50.996;4.754;2022-11-09T03:34:34;7.40;;;2.67;;
8861;SDS011;4799;50.996;4.754;2022-11-09T03:37:00;7.10;;;2.47;;
8861;SDS011;4799;50.996;4.754;2022-11-09T03:39:26;6.10;;;2.57;;
8861;SDS011;4799;50.996;4.754;2022-11-09T03:41:51;7.80;;;2.10;;
8861;SDS011;4799;50.996;4.754;2022-11-09T03:44:17;8.23;;;2.67;;
8861;SDS011;4799;50.996;4.754;2022-11-09T03:46:44;9.00;;;2.90;;
8861;SDS011;4799;50.996;4.754;2022-11-09T03:49:10;8.60;;;2.63;;
8861;SDS011;4799;50.996;4.754;2022-11-09T03:51:36;7.97;;;2.40;;
8861;SDS011;4799;50.996;4.754;2022-11-09T03:54:02;8.60;;;2.70;;
8861;SDS011;4799;50.996;4.754;2022-11-09T03:56:28;7.77;;;2.70;;
8861;SDS011;4799;50.996;4.754;2022-11-09T03:58:54;9.07;;;2.60;;
8861;SDS011;4799;50.996;4.754;2022-11-09T04:01:19;7.60;;;2.43;;
8861;SDS011;4799;50.996;4.754;2022-11-09T04:03:45;9.50;;;2.37;;
8861;SDS011;4799;50.996;4.754;2022-11-09T04:06:11;8.27;;;2.30;;
8861;SDS011;4799;50.996;4.754;2022-11-09T04:08:37;7.20;;;2.70;;
8861;SDS011;4799;50.996;4.754;2022-11-09T04:11:02;5.40;;;2.40;;
8861;SDS011;4799;50.996;4.754;2022-11-09T04:13:28;6.37;;;2.07;;
8861;SDS011;4799;50.996;4.754;2022-11-09T04:15:53;9.40;;;2.30;;
8861;SDS011;4799;50.996;4.754;2022-11-09T04:18:19;8.73;;;2.77;;
8861;SDS011;4799;50.996;4.754;2022-11-09T04:20:45;10.00;;;2.60;;
8861;SDS011;4799;50.996;4.754;2022-11-09T04:23:11;8.10;;;2.53;;
8861;SDS011;4799;50.996;4.754;2022-11-09T04:25:38;8.70;;;2.37;;
8861;SDS011;4799;50.996;4.754;2022-11-09T04:28:06;8.50;;;2.67;;
8861;SDS011;4799;50.996;4.754;2022-11-09T04:30:34;10.47;;;2.83;;
8861;SDS011;4799;50.996;4.754;2022-11-09T04:33:01;8.30;;;2.70;;
8861;SDS011;4799;50.996;4.754;2022-11-09T04:35:28;6.67;;;2.43;;
8861;SDS011;4799;50.996;4.754;2022-11-09T04:37:55;6.73;;;2.20;;
8861;SDS011;4799;50.996;4.754;2022-11-09T04:40:22;7.10;;;2.63;;
8861;SDS011;4799;50.996;4.754;2022-11-09T04:42:49;8.73;;;2.80;;
8861;SDS011;4799;50.996;4.754;2022-11-09T04:45:15;8.30;;;2.53;;
8861;SDS011;4799;50.996;4.754;2022-11-09T04:47:41;6.70;;;2.40;;
8861;SDS011;4799;50.996;4.754;2022-11-09T04:50:07;8.93;;;2.67;;
8861;SDS011;4799;50.996;4.754;2022-11-09T04:52:33;8.93;;;2.57;;
8861;SDS011;4799;50.996;4.754;2022-11-09T04:54:58;9.10;;;2.63;;
8861;SDS011;4799;50.996;4.754;2022-11-09T04:57:24;7.23;;;2.67;;
8861;SDS011;4799;50.996;4.754;2022-11-09T04:59:50;8.23;;;2.53;;
8861;SDS011;4799;50.996;4.754;2022-11-09T05:02:15;7.70;;;2.80;;
8861;SDS011;4799;50.996;4.754;2022-11-09T05:04:41;9.57;;;2.63;;
8861;SDS011;4799;50.996;4.754;2022-11-09T05:07:07;6.50;;;2.50;;
8861;SDS011;4799;50.996;4.754;2022-11-09T05:09:33;10.87;;;3.00;;
8861;SDS011;4799;50.996;4.754;2022-11-09T05:11:59;8.97;;;2.63;;
8861;SDS011;4799;50.996;4.754;2022-11-09T05:14:24;10.00;;;2.70;;
8861;SDS011;4799;50.996;4.754;2022-11-09T05:16:50;12.37;;;2.90;;
8861;SDS011;4799;50.996;4.754;2022-11-09T05:19:16;7.13;;;2.60;;
8861;SDS011;4799;50.996;4.754;2022-11-09T05:21:41;10.73;;;2.93;;
8861;SDS011;4799;50.996;4.754;2022-11-09T05:24:07;11.00;;;3.10;;
8861;SDS011;4799;50.996;4.754;2022-11-09T05:26:34;9.23;;;2.93;;
8861;SDS011;4799;50.996;4.754;2022-11-09T05:29:05;7.50;;;2.53;;
8861;SDS011;4799;50.996;4.754;2022-11-09T05:31:32;9.13;;;2.73;;
8861;SDS011;4799;50.996;4.754;2022-11-09T05:33:59;6.93;;;2.57;;
8861;SDS011;4799;50.996;4.754;2022-11-09T05:36:25;7.90;;;2.40;;
8861;SDS011;4799;50.996;4.754;2022-11-09T05:38:52;7.40;;;2.30;;
8861;SDS011;4799;50.996;4.754;2022-11-09T05:41:18;6.17;;;2.27;;
8861;SDS011;4799;50.996;4.754;2022-11-09T05:43:44;8.50;;;2.70;;
8861;SDS011;4799;50.996;4.754;2022-11-09T05:46:13;9.13;;;2.83;;
8861;SDS011;4799;50.996;4.754;2022-11-09T05:48:41;8.87;;;2.50;;
8861;SDS011;4799;50.996;4.754;2022-11-09T05:51:08;7.87;;;2.53;;
8861;SDS011;4799;50.996;4.754;2022-11-09T05:53:36;6.50;;;2.30;;
8861;SDS011;4799;50.996;4.754;2022-11-09T05:56:03;9.87;;;3.10;;
8861;SDS011;4799;50.996;4.754;2022-11-09T05:58:30;8.73;;;2.97;;
8861;SDS011;4799;50.996;4.754;2022-11-09T06:01:01;6.77;;;2.30;;
8861;SDS011;4799;50.996;4.754;2022-11-09T06:03:30;9.30;;;2.50;;
8861;SDS011;4799;50.996;4.754;2022-11-09T06:05:59;8.00;;;2.87;;
8861;SDS011;4799;50.996;4.754;2022-11-09T06:08:26;8.83;;;2.77;;
8861;SDS011;4799;50.996;4.754;2022-11-09T06:10:56;9.90;;;2.57;;
8861;SDS011;4799;50.996;4.754;2022-11-09T06:13:23;8.53;;;2.53;;
8861;SDS011;4799;50.996;4.754;2022-11-09T06:15:53;9.67;;;2.90;;
8861;SDS011;4799;50.996;4.754;2022-11-09T06:18:23;10.33;;;3.20;;
8861;SDS011;4799;50.996;4.754;2022-11-09T06:20:53;10.20;;;2.93;;
8861;SDS011;4799;50.996;4.754;2022-11-09T06:23:20;8.63;;;3.10;;
8861;SDS011;4799;50.996;4.754;2022-11-09T06:26:11;6.53;;;2.43;;
8861;SDS011;4799;50.996;4.754;2022-11-09T06:28:39;8.07;;;2.23;;
8861;SDS011;4799;50.996;4.754;2022-11-09T06:31:08;10.60;;;2.40;;
8861;SDS011;4799;50.996;4.754;2022-11-09T06:33:36;7.20;;;2.40;;
8861;SDS011;4799;50.996;4.754;2022-11-09T06:36:02;8.10;;;2.97;;
8861;SDS011;4799;50.996;4.754;2022-11-09T06:38:28;9.53;;;2.50;;
8861;SDS011;4799;50.996;4.754;2022-11-09T06:40:55;8.43;;;2.63;;
8861;SDS011;4799;50.996;4.754;2022-11-09T06:43:22;10.60;;;2.70;;
8861;SDS011;4799;50.996;4.754;2022-11-09T06:45:49;9.73;;;2.90;;
8861;SDS011;4799;50.996;4.754;2022-11-09T06:48:15;7.73;;;2.60;;
8861;SDS011;4799;50.996;4.754;2022-11-09T06:50:41;6.60;;;2.30;;
8861;SDS011;4799;50.996;4.754;2022-11-09T06:53:09;9.17;;;2.83;;
8861;SDS011;4799;50.996;4.754;2022-11-09T06:55:37;9.07;;;2.87;;
8861;SDS011;4799;50.996;4.754;2022-11-09T06:58:04;7.13;;;3.07;;
8861;SDS011;4799;50.996;4.754;2022-11-09T07:00:35;8.70;;;2.80;;
8861;SDS011;4799;50.996;4.754;2022-11-09T07:03:01;7.90;;;2.60;;
8861;SDS011;4799;50.996;4.754;2022-11-09T07:05:27;7.80;;;2.80;;
8861;SDS011;4799;50.996;4.754;2022-11-09T07:07:53;10.30;;;2.93;;
8861;SDS011;4799;50.996;4.754;2022-11-09T07:10:19;9.70;;;2.90;;
8861;SDS011;4799;50.996;4.754;2022-11-09T07:12:45;7.43;;;2.60;;
8861;SDS011;4799;50.996;4.754;2022-11-09T07:15:10;8.73;;;2.90;;
8861;SDS011;4799;50.996;4.754;2022-11-09T07:17:37;6.33;;;2.53;;
8861;SDS011;4799;50.996;4.754;2022-11-09T07:20:07;8.57;;;3.17;;
8861;SDS011;4799;50.996;4.754;2022-11-09T07:22:33;8.20;;;2.70;;
8861;SDS011;4799;50.996;4.754;2022-11-09T07:25:04;11.47;;;3.30;;
8861;SDS011;4799;50.996;4.754;2022-11-09T07:27:31;7.57;;;2.87;;
8861;SDS011;4799;50.996;4.754;2022-11-09T07:29:57;8.47;;;3.07;;
8861;SDS011;4799;50.996;4.754;2022-11-09T07:32:22;8.17;;;2.73;;
8861;SDS011;4799;50.996;4.754;2022-11-09T07:34:48;8.47;;;3.03;;
8861;SDS011;4799;50.996;4.754;2022-11-09T07:37:14;7.60;;;2.63;;
8861;SDS011;4799;50.996;4.754;2022-11-09T07:39:39;8.23;;;2.80;;
8861;SDS011;4799;50.996;4.754;2022-11-09T07:42:05;7.10;;;2.67;;
8861;SDS011;4799;50.996;4.754;2022-11-09T07:44:31;7.50;;;2.50;;
8861;SDS011;4799;50.996;4.754;2022-11-09T07:46:56;8.37;;;2.70;;
8861;SDS011;4799;50.996;4.754;2022-11-09T07:49:22;5.63;;;2.70;;
8861;SDS011;4799;50.996;4.754;2022-11-09T07:51:48;8.17;;;2.77;;
8861;SDS011;4799;50.996;4.754;2022-11-09T07:54:13;7.20;;;2.40;;
8861;SDS011;4799;50.996;4.754;2022-11-09T07:56:39;7.00;;;2.30;;
8861;SDS011;4799;50.996;4.754;2022-11-09T07:59:05;7.73;;;2.73;;
8861;SDS011;4799;50.996;4.754;2022-11-09T08:01:30;6.33;;;2.27;;
8861;SDS011;4799;50.996;4.754;2022-11-09T08:03:56;8.93;;;2.67;;
8861;SDS011;4799;50.996;4.754;2022-11-09T08:06:22;8.67;;;2.63;;
8861;SDS011;4799;50.996;4.754;2022-11-09T08:08:54;7.53;;;2.63;;
8861;SDS011;4799;50.996;4.754;2022-11-09T08:11:22;7.87;;;2.60;;
8861;SDS011;4799;50.996;4.754;2022-11-09T08:13:48;8.90;;;2.50;;
8861;SDS011;4799;50.996;4.754;2022-11-09T08:16:14;7.73;;;2.40;;
8861;SDS011;4799;50.996;4.754;2022-11-09T08:18:40;7.27;;;2.80;;
8861;SDS011;4799;50.996;4.754;2022-11-09T08:21:06;7.20;;;2.87;;
8861;SDS011;4799;50.996;4.754;2022-11-09T08:23:31;9.60;;;2.73;;
8861;SDS011;4799;50.996;4.754;2022-11-09T08:26:00;9.13;;;2.50;;
8861;SDS011;4799;50.996;4.754;2022-11-09T08:28:27;6.67;;;2.57;;
8861;SDS011;4799;50.996;4.754;2022-11-09T08:30:54;8.57;;;2.70;;
8861;SDS011;4799;50.996;4.754;2022-11-09T08:33:32;9.10;;;2.70;;
8861;SDS011;4799;50.996;4.754;2022-11-09T08:36:00;7.40;;;2.60;;
8861;SDS011;4799;50.996;4.754;2022-11-09T08:38:26;10.80;;;2.80;;
8861;SDS011;4799;50.996;4.754;2022-11-09T08:40:55;7.23;;;2.63;;
8861;SDS011;4799;50.996;4.754;2022-11-09T08:43:22;7.77;;;2.37;;
8861;SDS011;4799;50.996;4.754;2022-11-09T08:45:48;7.07;;;2.60;;
8861;SDS011;4799;50.996;4.754;2022-11-09T08:48:13;7.70;;;2.60;;
8861;SDS011;4799;50.996;4.754;2022-11-09T08:50:39;9.43;;;2.63;;
8861;SDS011;4799;50.996;4.754;2022-11-09T08:53:05;9.23;;;2.27;;
8861;SDS011;4799;50.996;4.754;2022-11-09T08:55:32;6.23;;;2.27;;
8861;SDS011;4799;50.996;4.754;2022-11-09T08:57:59;6.40;;;2.47;;
8861;SDS011;4799;50.996;4.754;2022-11-09T09:00:26;8.77;;;2.50;;
8861;SDS011;4799;50.996;4.754;2022-11-09T09:02:52;8.67;;;2.43;;
8861;SDS011;4799;50.996;4.754;2022-11-09T09:05:18;10.57;;;2.50;;
8861;SDS011;4799;50.996;4.754;2022-11-09T09:07:45;10.53;;;2.53;;
8861;SDS011;4799;50.996;4.754;2022-11-09T09:10:10;8.37;;;2.53;;
8861;SDS011;4799;50.996;4.754;2022-11-09T09:12:36;8.20;;;2.27;;
8861;SDS011;4799;50.996;4.754;2022-11-09T09:15:02;8.33;;;2.37;;
8861;SDS011;4799;50.996;4.754;2022-11-09T09:17:29;7.23;;;2.30;;
8861;SDS011;4799;50.996;4.754;2022-11-09T09:19:55;6.30;;;2.20;;
8861;SDS011;4799;50.996;4.754;2022-11-09T09:22:21;5.53;;;2.30;;
8861;SDS011;4799;50.996;4.754;2022-11-09T09:24:47;6.57;;;2.30;;
8861;SDS011;4799;50.996;4.754;2022-11-09T09:27:13;8.00;;;2.40;;
8861;SDS011;4799;50.996;4.754;2022-11-09T09:29:39;9.20;;;2.10;;
8861;SDS011;4799;50.996;4.754;2022-11-09T09:32:04;8.30;;;3.00;;
8861;SDS011;4799;50.996;4.754;2022-11-09T09:34:31;7.37;;;2.40;;
8861;SDS011;4799;50.996;4.754;2022-11-09T09:36:56;6.37;;;2.10;;
8861;SDS011;4799;50.996;4.754;2022-11-09T09:39:22;6.87;;;2.10;;
8861;SDS011;4799;50.996;4.754;2022-11-09T09:41:52;7.40;;;2.27;;
8861;SDS011;4799;50.996;4.754;2022-11-09T09:47:26;8.20;;;2.50;;
8861;SDS011;4799;50.996;4.754;2022-11-09T09:50:09;10.30;;;2.60;;
8861;SDS011;4799;50.996;4.754;2022-11-09T09:57:58;7.00;;;2.23;;
8861;SDS011;4799;50.996;4.754;2022-11-09T10:00:47;6.57;;;2.10;;
8861;SDS011;4799;50.996;4.754;2022-11-09T10:03:19;7.87;;;2.30;;
8861;SDS011;4799;50.996;4.754;2022-11-09T10:08:52;8.27;;;2.40;;
8861;SDS011;4799;50.996;4.754;2022-11-09T10:11:47;6.40;;;2.03;;
8861;SDS011;4799;50.996;4.754;2022-11-09T10:18:04;3.63;;;2.10;;
8861;SDS011;4799;50.996;4.754;2022-11-09T10:25:45;6.47;;;1.87;;
8861;SDS011;4799;50.996;4.754;2022-11-09T10:28:15;6.17;;;2.43;;
8861;SDS011;4799;50.996;4.754;2022-11-09T10:30:41;6.07;;;2.20;;
8861;SDS011;4799;50.996;4.754;2022-11-09T10:35:34;5.30;;;1.90;;
8861;SDS011;4799;50.996;4.754;2022-11-09T10:38:01;7.90;;;2.10;;
8861;SDS011;4799;50.996;4.754;2022-11-09T10:40:37;7.73;;;2.27;;
8861;SDS011;4799;50.996;4.754;2022-11-09T10:43:13;7.73;;;2.50;;
8861;SDS011;4799;50.996;4.754;2022-11-09T10:45:40;6.70;;;2.30;;
8861;SDS011;4799;50.996;4.754;2022-11-09T10:48:08;7.03;;;2.43;;
8861;SDS011;4799;50.996;4.754;2022-11-09T10:55:56;7.27;;;2.27;;
8861;SDS011;4799;50.996;4.754;2022-11-09T10:58:36;6.40;;;2.00;;
8861;SDS011;4799;50.996;4.754;2022-11-09T11:01:21;6.67;;;2.00;;
8861;SDS011;4799;50.996;4.754;2022-11-09T11:03:49;6.73;;;2.20;;
8861;SDS011;4799;50.996;4.754;2022-11-09T11:08:50;4.27;;;1.97;;
8861;SDS011;4799;50.996;4.754;2022-11-09T11:11:19;7.73;;;2.20;;
8861;SDS011;4799;50.996;4.754;2022-11-09T11:13:45;6.07;;;1.90;;
8861;SDS011;4799;50.996;4.754;2022-11-09T11:16:13;8.27;;;1.90;;
8861;SDS011;4799;50.996;4.754;2022-11-09T11:18:42;6.20;;;2.03;;
8861;SDS011;4799;50.996;4.754;2022-11-09T11:21:15;5.53;;;1.73;;
8861;SDS011;4799;50.996;4.754;2022-11-09T11:23:42;7.20;;;2.27;;
8861;SDS011;4799;50.996;4.754;2022-11-09T11:26:14;5.57;;;2.13;;
8861;SDS011;4799;50.996;4.754;2022-11-09T11:28:47;7.57;;;2.10;;
8861;SDS011;4799;50.996;4.754;2022-11-09T11:31:17;7.20;;;2.27;;
8861;SDS011;4799;50.996;4.754;2022-11-09T11:33:44;5.87;;;2.00;;
8861;SDS011;4799;50.996;4.754;2022-11-09T11:38:50;4.57;;;1.80;;
8861;SDS011;4799;50.996;4.754;2022-11-09T11:44:11;5.37;;;1.90;;
8861;SDS011;4799;50.996;4.754;2022-11-09T11:46:54;4.90;;;1.90;;
8861;SDS011;4799;50.996;4.754;2022-11-09T12:08:27;4.07;;;1.67;;
8861;SDS011;4799;50.996;4.754;2022-11-09T12:11:25;7.37;;;1.90;;
8861;SDS011;4799;50.996;4.754;2022-11-09T12:14:21;7.70;;;2.10;;
8861;SDS011;4799;50.996;4.754;2022-11-09T12:17:05;6.43;;;1.90;;
8861;SDS011;4799;50.996;4.754;2022-11-09T12:22:33;5.10;;;2.20;;
8861;SDS011;4799;50.996;4.754;2022-11-09T12:36:17;7.10;;;2.07;;
8861;SDS011;4799;50.996;4.754;2022-11-09T12:38:55;5.43;;;2.00;;
8861;SDS011;4799;50.996;4.754;2022-11-09T12:41:33;4.50;;;1.80;;
8861;SDS011;4799;50.996;4.754;2022-11-09T12:44:16;5.67;;;1.63;;
8861;SDS011;4799;50.996;4.754;2022-11-09T12:46:57;5.00;;;1.53;;
8861;SDS011;4799;50.996;4.754;2022-11-09T12:52:02;6.67;;;2.10;;
8861;SDS011;4799;50.996;4.754;2022-11-09T12:54:30;4.47;;;1.60;;
8861;SDS011;4799;50.996;4.754;2022-11-09T12:57:00;3.93;;;1.40;;
8861;SDS011;4799;50.996;4.754;2022-11-09T13:01:55;6.60;;;1.40;;
8861;SDS011;4799;50.996;4.754;2022-11-09T13:04:23;2.83;;;1.20;;
8861;SDS011;4799;50.996;4.754;2022-11-09T13:09:27;2.57;;;0.97;;
8861;SDS011;4799;50.996;4.754;2022-11-09T13:11:54;2.23;;;1.07;;
8861;SDS011;4799;50.996;4.754;2022-11-09T13:16:53;2.67;;;1.10;;
8861;SDS011;4799;50.996;4.754;2022-11-09T13:19:56;2.57;;;1.10;;
8861;SDS011;4799;50.996;4.754;2022-11-09T13:24:51;1.90;;;1.00;;
8861;SDS011;4799;50.996;4.754;2022-11-09T13:27:37;3.43;;;1.40;;
8861;SDS011;4799;50.996;4.754;2022-11-09T13:36:14;3.70;;;1.83;;
8861;SDS011;4799;50.996;4.754;2022-11-09T13:38:23;2.37;;;1.27;;
8861;SDS011;4799;50.996;4.754;2022-11-09T13:41:02;3.40;;;1.50;;
8861;SDS011;4799;50.996;4.754;2022-11-09T13:43:48;3.27;;;1.60;;
8861;SDS011;4799;50.996;4.754;2022-11-09T13:46:37;4.00;;;1.70;;
8861;SDS011;4799;50.996;4.754;2022-11-09T13:49:05;2.70;;;1.40;;
8861;SDS011;4799;50.996;4.754;2022-11-09T13:55:25;6.03;;;2.00;;
8861;SDS011;4799;50.996;4.754;2022-11-09T14:01:02;6.37;;;2.00;;
8861;SDS011;4799;50.996;4.754;2022-11-09T14:03:28;6.30;;;2.00;;
8861;SDS011;4799;50.996;4.754;2022-11-09T14:05:55;5.00;;;1.90;;
8861;SDS011;4799;50.996;4.754;2022-11-09T14:08:28;5.27;;;2.10;;
8861;SDS011;4799;50.996;4.754;2022-11-09T14:11:06;6.23;;;1.90;;
8861;SDS011;4799;50.996;4.754;2022-11-09T14:19:37;7.13;;;2.23;;
8861;SDS011;4799;50.996;4.754;2022-11-09T14:22:13;5.63;;;2.27;;
8861;SDS011;4799;50.996;4.754;2022-11-09T14:24:40;7.17;;;2.20;;
8861;SDS011;4799;50.996;4.754;2022-11-09T14:29:33;4.87;;;2.20;;
8861;SDS011;4799;50.996;4.754;2022-11-09T14:34:47;7.93;;;2.00;;
8861;SDS011;4799;50.996;4.754;2022-11-09T14:37:13;6.77;;;2.07;;
8861;SDS011;4799;50.996;4.754;2022-11-09T14:39:39;6.73;;;2.00;;
8861;SDS011;4799;50.996;4.754;2022-11-09T14:42:05;6.30;;;2.00;;
8861;SDS011;4799;50.996;4.754;2022-11-09T14:44:32;5.60;;;1.93;;
8861;SDS011;4799;50.996;4.754;2022-11-09T14:47:05;5.13;;;1.97;;
8861;SDS011;4799;50.996;4.754;2022-11-09T14:49:38;6.57;;;1.97;;
8861;SDS011;4799;50.996;4.754;2022-11-09T14:52:05;5.27;;;2.03;;
8861;SDS011;4799;50.996;4.754;2022-11-09T14:54:32;8.60;;;2.10;;
8861;SDS011;4799;50.996;4.754;2022-11-09T14:56:59;7.80;;;2.30;;
8861;SDS011;4799;50.996;4.754;2022-11-09T14:59:32;5.47;;;1.77;;
8861;SDS011;4799;50.996;4.754;2022-11-09T15:04:30;4.53;;;1.60;;
8861;SDS011;4799;50.996;4.754;2022-11-09T15:07:16;4.77;;;1.60;;
8861;SDS011;4799;50.996;4.754;2022-11-09T15:09:46;3.87;;;1.60;;
8861;SDS011;4799;50.996;4.754;2022-11-09T15:12:15;4.60;;;1.53;;
8861;SDS011;4799;50.996;4.754;2022-11-09T15:14:46;5.57;;;1.60;;
8861;SDS011;4799;50.996;4.754;2022-11-09T15:17:28;5.43;;;1.80;;
8861;SDS011;4799;50.996;4.754;2022-11-09T15:19:57;5.23;;;2.00;;
8861;SDS011;4799;50.996;4.754;2022-11-09T15:25:50;5.50;;;1.60;;
8861;SDS011;4799;50.996;4.754;2022-11-09T15:28:25;4.97;;;1.80;;
8861;SDS011;4799;50.996;4.754;2022-11-09T15:35:53;4.03;;;1.83;;
8861;SDS011;4799;50.996;4.754;2022-11-09T15:41:10;5.67;;;1.63;;
8861;SDS011;4799;50.996;4.754;2022-11-09T15:43:39;4.93;;;1.60;;
8861;SDS011;4799;50.996;4.754;2022-11-09T15:46:05;4.87;;;1.37;;
8861;SDS011;4799;50.996;4.754;2022-11-09T15:48:30;4.97;;;1.90;;
8861;SDS011;4799;50.996;4.754;2022-11-09T15:50:56;4.97;;;1.83;;
8861;SDS011;4799;50.996;4.754;2022-11-09T15:53:22;5.83;;;1.90;;
8861;SDS011;4799;50.996;4.754;2022-11-09T15:55:48;7.77;;;2.17;;
8861;SDS011;4799;50.996;4.754;2022-11-09T15:58:15;5.77;;;2.40;;
8861;SDS011;4799;50.996;4.754;2022-11-09T16:00:42;7.87;;;2.60;;
8861;SDS011;4799;50.996;4.754;2022-11-09T16:03:09;4.30;;;1.80;;
8861;SDS011;4799;50.996;4.754;2022-11-09T16:05:35;7.57;;;2.37;;
8861;SDS011;4799;50.996;4.754;2022-11-09T16:08:01;4.93;;;2.00;;
8861;SDS011;4799;50.996;4.754;2022-11-09T16:10:28;7.03;;;1.97;;
8861;SDS011;4799;50.996;4.754;2022-11-09T16:12:57;9.33;;;3.20;;
8861;SDS011;4799;50.996;4.754;2022-11-09T16:15:23;5.43;;;2.17;;
8861;SDS011;4799;50.996;4.754;2022-11-09T16:17:51;4.23;;;2.07;;
8861;SDS011;4799;50.996;4.754;2022-11-09T16:20:17;6.23;;;2.33;;
8861;SDS011;4799;50.996;4.754;2022-11-09T16:22:44;5.90;;;2.40;;
8861;SDS011;4799;50.996;4.754;2022-11-09T16:25:11;6.20;;;2.53;;
8861;SDS011;4799;50.996;4.754;2022-11-09T16:27:37;5.47;;;2.57;;
8861;SDS011;4799;50.996;4.754;2022-11-09T16:30:04;7.97;;;2.87;;
8861;SDS011;4799;50.996;4.754;2022-11-09T16:32:32;5.80;;;2.57;;
8861;SDS011;4799;50.996;4.754;2022-11-09T16:34:58;6.10;;;2.97;;
8861;SDS011;4799;50.996;4.754;2022-11-09T16:37:23;6.87;;;3.07;;
8861;SDS011;4799;50.996;4.754;2022-11-09T16:39:49;6.87;;;3.03;;
8861;SDS011;4799;50.996;4.754;2022-11-09T16:42:16;6.20;;;2.93;;
8861;SDS011;4799;50.996;4.754;2022-11-09T16:44:43;5.80;;;2.50;;
8861;SDS011;4799;50.996;4.754;2022-11-09T16:47:12;5.90;;;2.60;;
8861;SDS011;4799;50.996;4.754;2022-11-09T16:49:40;7.97;;;3.23;;
8861;SDS011;4799;50.996;4.754;2022-11-09T16:52:06;6.37;;;3.73;;
8861;SDS011;4799;50.996;4.754;2022-11-09T16:54:31;8.03;;;4.00;;
8861;SDS011;4799;50.996;4.754;2022-11-09T16:56:57;7.23;;;4.30;;
8861;SDS011;4799;50.996;4.754;2022-11-09T16:59:24;8.10;;;3.60;;
8861;SDS011;4799;50.996;4.754;2022-11-09T17:01:54;8.40;;;4.00;;
8861;SDS011;4799;50.996;4.754;2022-11-09T17:04:21;8.33;;;3.97;;
8861;SDS011;4799;50.996;4.754;2022-11-09T17:06:47;8.07;;;4.00;;
8861;SDS011;4799;50.996;4.754;2022-11-09T17:09:14;7.53;;;3.30;;
8861;SDS011;4799;50.996;4.754;2022-11-09T17:11:40;8.47;;;3.50;;
8861;SDS011;4799;50.996;4.754;2022-11-09T17:14:06;6.43;;;3.43;;
8861;SDS011;4799;50.996;4.754;2022-11-09T17:16:32;6.60;;;3.30;;
8861;SDS011;4799;50.996;4.754;2022-11-09T17:18:58;7.90;;;5.90;;
8861;SDS011;4799;50.996;4.754;2022-11-09T17:21:24;8.73;;;3.90;;
8861;SDS011;4799;50.996;4.754;2022-11-09T17:23:52;7.70;;;3.47;;